Live aus Altenrhein
LIVE
LSZR 240420Z VRB02KT 9999 SCT050 BKN070 16/13 Q1011 NOSIG RMK A

People´s Info Center:

Öffnungszeiten Mo-Fr, 8-18 Uhr

 

info@peoples.ch

 
Aus Österreich:

T: +43 (0)5572 203 610

 

Aus CH / LI / DE:

T: +41 (0)71 858 51 60

 

Ich habe Flugangst und bin etwas beunruhigt was das Fliegen anbelangt.

 

People’s bietet in Kooperation mit flugangst-berater.com powered by Tasma Life Balance Unterstützung bei der Überwindung von Flugangst.

 

Das Angebot besteht aus bewährten psychologischen Coaching-Methoden, Entspannungstechniken und der Aufklärung über technische Aspekte des Fliegens durch Experten. Die Gruppengrösse ist dabei auf drei bis sechs Personen beschränkt. Betroffene Erwachsene und Jugendliche ab 15 Jahren können an folgenden Flugangst-Seminaren teilnehmen:

 

  • Flugangst Tages-Seminar inkl. Flughafen- und Flugzeugbesichtigung zu einem Preis von CHF 650.-
  • Flugangst Zwei-Tages-Seminar inkl. Flug Altenrhein-Wien-Altenrhein zu einem Preis von CHF 1300.-

 

Individuelle Beratungen oder Seminare können jederzeit organisiert werden.

 

Weitere Informationen und Termine